sensor_id;sensor_type;location;lat;lon;timestamp;P1;durP1;ratioP1;P2;durP2;ratioP2
62202;SDS011;48199;49.138;7.414;2022-07-03T00:01:58;7.10;;;4.80;;
62202;SDS011;48199;49.138;7.414;2022-07-03T00:04:23;5.65;;;4.25;;
62202;SDS011;48199;49.138;7.414;2022-07-03T00:06:49;5.55;;;4.40;;
62202;SDS011;48199;49.138;7.414;2022-07-03T00:09:15;8.77;;;5.88;;
62202;SDS011;48199;49.138;7.414;2022-07-03T00:11:40;7.90;;;5.35;;
62202;SDS011;48199;49.138;7.414;2022-07-03T00:14:06;9.90;;;5.72;;
62202;SDS011;48199;49.138;7.414;2022-07-03T00:16:31;9.85;;;6.15;;
62202;SDS011;48199;49.138;7.414;2022-07-03T00:18:56;7.85;;;4.45;;
62202;SDS011;48199;49.138;7.414;2022-07-03T00:21:43;8.88;;;4.82;;
62202;SDS011;48199;49.138;7.414;2022-07-03T00:26:50;4.95;;;3.38;;
62202;SDS011;48199;49.138;7.414;2022-07-03T00:29:19;6.13;;;4.72;;
62202;SDS011;48199;49.138;7.414;2022-07-03T00:31:46;5.85;;;4.72;;
62202;SDS011;48199;49.138;7.414;2022-07-03T00:34:12;6.28;;;3.67;;
62202;SDS011;48199;49.138;7.414;2022-07-03T00:36:40;8.60;;;5.03;;
62202;SDS011;48199;49.138;7.414;2022-07-03T00:39:06;6.93;;;4.18;;
62202;SDS011;48199;49.138;7.414;2022-07-03T00:41:33;6.18;;;3.28;;
62202;SDS011;48199;49.138;7.414;2022-07-03T00:43:59;6.72;;;3.55;;
62202;SDS011;48199;49.138;7.414;2022-07-03T00:46:25;9.02;;;2.70;;
62202;SDS011;48199;49.138;7.414;2022-07-03T00:48:53;6.68;;;4.15;;
62202;SDS011;48199;49.138;7.414;2022-07-03T00:51:23;10.05;;;3.38;;
62202;SDS011;48199;49.138;7.414;2022-07-03T00:53:53;7.47;;;4.00;;
62202;SDS011;48199;49.138;7.414;2022-07-03T00:56:26;7.13;;;4.25;;
62202;SDS011;48199;49.138;7.414;2022-07-03T00:58:54;6.30;;;3.60;;
62202;SDS011;48199;49.138;7.414;2022-07-03T01:01:21;15.23;;;4.40;;
62202;SDS011;48199;49.138;7.414;2022-07-03T01:03:53;16.83;;;8.85;;
62202;SDS011;48199;49.138;7.414;2022-07-03T01:06:29;8.60;;;5.50;;
62202;SDS011;48199;49.138;7.414;2022-07-03T01:09:00;14.43;;;5.28;;
62202;SDS011;48199;49.138;7.414;2022-07-03T01:12:05;17.33;;;5.72;;
62202;SDS011;48199;49.138;7.414;2022-07-03T01:14:44;15.75;;;5.93;;
62202;SDS011;48199;49.138;7.414;2022-07-03T01:17:20;12.32;;;8.98;;
62202;SDS011;48199;49.138;7.414;2022-07-03T01:19:56;17.67;;;9.77;;
62202;SDS011;48199;49.138;7.414;2022-07-03T01:22:37;21.85;;;14.55;;
62202;SDS011;48199;49.138;7.414;2022-07-03T01:30:29;7.60;;;5.63;;
62202;SDS011;48199;49.138;7.414;2022-07-03T01:33:07;11.95;;;8.40;;
62202;SDS011;48199;49.138;7.414;2022-07-03T01:35:35;14.85;;;8.15;;
62202;SDS011;48199;49.138;7.414;2022-07-03T01:38:10;7.40;;;5.00;;
62202;SDS011;48199;49.138;7.414;2022-07-03T01:40:39;12.20;;;8.70;;
62202;SDS011;48199;49.138;7.414;2022-07-03T01:43:07;8.88;;;7.05;;
62202;SDS011;48199;49.138;7.414;2022-07-03T01:45:52;11.85;;;5.80;;
62202;SDS011;48199;49.138;7.414;2022-07-03T01:48:20;11.85;;;6.22;;
62202;SDS011;48199;49.138;7.414;2022-07-03T01:50:48;8.07;;;5.70;;
62202;SDS011;48199;49.138;7.414;2022-07-03T01:53:15;10.85;;;5.63;;
62202;SDS011;48199;49.138;7.414;2022-07-03T01:55:42;13.68;;;5.75;;
62202;SDS011;48199;49.138;7.414;2022-07-03T01:58:08;9.25;;;5.88;;
62202;SDS011;48199;49.138;7.414;2022-07-03T02:00:57;11.68;;;5.75;;
62202;SDS011;48199;49.138;7.414;2022-07-03T02:03:35;8.02;;;5.07;;
62202;SDS011;48199;49.138;7.414;2022-07-03T02:06:11;12.30;;;5.60;;
62202;SDS011;48199;49.138;7.414;2022-07-03T02:08:48;5.03;;;3.85;;
62202;SDS011;48199;49.138;7.414;2022-07-03T02:11:15;7.70;;;4.90;;
62202;SDS011;48199;49.138;7.414;2022-07-03T02:13:45;7.13;;;4.50;;
62202;SDS011;48199;49.138;7.414;2022-07-03T02:16:18;7.93;;;4.50;;
62202;SDS011;48199;49.138;7.414;2022-07-03T02:18:49;9.95;;;4.82;;
62202;SDS011;48199;49.138;7.414;2022-07-03T02:21:20;4.90;;;3.65;;
62202;SDS011;48199;49.138;7.414;2022-07-03T02:23:53;9.93;;;4.63;;
62202;SDS011;48199;49.138;7.414;2022-07-03T02:26:40;6.57;;;4.07;;
62202;SDS011;48199;49.138;7.414;2022-07-03T02:29:09;8.88;;;4.40;;
62202;SDS011;48199;49.138;7.414;2022-07-03T02:31:42;6.85;;;4.25;;
62202;SDS011;48199;49.138;7.414;2022-07-03T02:34:12;11.20;;;4.07;;
62202;SDS011;48199;49.138;7.414;2022-07-03T02:36:40;9.77;;;4.45;;
62202;SDS011;48199;49.138;7.414;2022-07-03T02:39:12;8.73;;;4.30;;
62202;SDS011;48199;49.138;7.414;2022-07-03T02:41:45;5.88;;;4.40;;
62202;SDS011;48199;49.138;7.414;2022-07-03T02:44:21;7.03;;;4.30;;
62202;SDS011;48199;49.138;7.414;2022-07-03T02:50:04;6.10;;;4.70;;
62202;SDS011;48199;49.138;7.414;2022-07-03T02:55:08;9.55;;;4.55;;
62202;SDS011;48199;49.138;7.414;2022-07-03T02:57:45;5.65;;;4.20;;
62202;SDS011;48199;49.138;7.414;2022-07-03T03:00:20;6.88;;;4.50;;
62202;SDS011;48199;49.138;7.414;2022-07-03T03:10:58;6.72;;;4.50;;
62202;SDS011;48199;49.138;7.414;2022-07-03T03:13:28;11.13;;;4.53;;
62202;SDS011;48199;49.138;7.414;2022-07-03T03:18:33;10.20;;;4.35;;
62202;SDS011;48199;49.138;7.414;2022-07-03T03:21:03;7.75;;;5.00;;
62202;SDS011;48199;49.138;7.414;2022-07-03T03:23:35;9.60;;;5.00;;
62202;SDS011;48199;49.138;7.414;2022-07-03T03:26:08;10.77;;;5.30;;
62202;SDS011;48199;49.138;7.414;2022-07-03T03:28:35;7.57;;;4.70;;
62202;SDS011;48199;49.138;7.414;2022-07-03T03:31:01;11.32;;;4.47;;
62202;SDS011;48199;49.138;7.414;2022-07-03T03:33:27;6.45;;;4.50;;
62202;SDS011;48199;49.138;7.414;2022-07-03T03:35:53;9.65;;;4.63;;
62202;SDS011;48199;49.138;7.414;2022-07-03T03:38:18;6.75;;;4.28;;
62202;SDS011;48199;49.138;7.414;2022-07-03T03:40:43;7.93;;;3.92;;
62202;SDS011;48199;49.138;7.414;2022-07-03T03:43:10;7.85;;;4.32;;
62202;SDS011;48199;49.138;7.414;2022-07-03T03:45:35;7.90;;;4.30;;
62202;SDS011;48199;49.138;7.414;2022-07-03T03:48:01;7.80;;;4.80;;
62202;SDS011;48199;49.138;7.414;2022-07-03T03:50:26;8.60;;;4.25;;
62202;SDS011;48199;49.138;7.414;2022-07-03T03:52:52;7.05;;;3.90;;
62202;SDS011;48199;49.138;7.414;2022-07-03T03:55:17;6.43;;;4.53;;
62202;SDS011;48199;49.138;7.414;2022-07-03T03:57:43;8.40;;;3.90;;
62202;SDS011;48199;49.138;7.414;2022-07-03T04:00:08;6.35;;;3.90;;
62202;SDS011;48199;49.138;7.414;2022-07-03T04:02:34;6.13;;;4.45;;
62202;SDS011;48199;49.138;7.414;2022-07-03T04:04:59;7.82;;;4.13;;
62202;SDS011;48199;49.138;7.414;2022-07-03T04:07:25;7.07;;;4.20;;
62202;SDS011;48199;49.138;7.414;2022-07-03T04:09:50;7.07;;;4.63;;
62202;SDS011;48199;49.138;7.414;2022-07-03T04:12:16;5.63;;;4.22;;
62202;SDS011;48199;49.138;7.414;2022-07-03T04:14:42;7.82;;;4.88;;
62202;SDS011;48199;49.138;7.414;2022-07-03T04:17:07;13.60;;;4.45;;
62202;SDS011;48199;49.138;7.414;2022-07-03T04:19:33;9.95;;;4.63;;
62202;SDS011;48199;49.138;7.414;2022-07-03T04:21:58;8.48;;;4.40;;
62202;SDS011;48199;49.138;7.414;2022-07-03T04:24:24;13.00;;;4.20;;
62202;SDS011;48199;49.138;7.414;2022-07-03T04:26:49;8.93;;;4.40;;
62202;SDS011;48199;49.138;7.414;2022-07-03T04:29:14;7.43;;;4.15;;
62202;SDS011;48199;49.138;7.414;2022-07-03T04:31:40;8.88;;;4.25;;
62202;SDS011;48199;49.138;7.414;2022-07-03T04:34:05;6.32;;;3.70;;
62202;SDS011;48199;49.138;7.414;2022-07-03T04:36:31;7.43;;;3.80;;
62202;SDS011;48199;49.138;7.414;2022-07-03T04:38:56;8.73;;;4.22;;
62202;SDS011;48199;49.138;7.414;2022-07-03T04:41:21;7.03;;;3.10;;
62202;SDS011;48199;49.138;7.414;2022-07-03T04:43:47;6.32;;;3.55;;
62202;SDS011;48199;49.138;7.414;2022-07-03T04:46:12;7.03;;;3.05;;
62202;SDS011;48199;49.138;7.414;2022-07-03T04:48:38;3.53;;;2.17;;
62202;SDS011;48199;49.138;7.414;2022-07-03T04:51:03;7.93;;;2.80;;
62202;SDS011;48199;49.138;7.414;2022-07-03T04:53:28;4.85;;;2.60;;
62202;SDS011;48199;49.138;7.414;2022-07-03T04:55:54;4.20;;;2.55;;
62202;SDS011;48199;49.138;7.414;2022-07-03T04:58:19;7.63;;;2.13;;
62202;SDS011;48199;49.138;7.414;2022-07-03T05:00:45;7.03;;;2.10;;
62202;SDS011;48199;49.138;7.414;2022-07-03T05:03:11;2.70;;;2.00;;
62202;SDS011;48199;49.138;7.414;2022-07-03T05:05:37;15.63;;;4.10;;
62202;SDS011;48199;49.138;7.414;2022-07-03T05:08:03;7.45;;;2.70;;
62202;SDS011;48199;49.138;7.414;2022-07-03T05:10:28;5.65;;;2.00;;
62202;SDS011;48199;49.138;7.414;2022-07-03T05:12:54;7.72;;;2.03;;
62202;SDS011;48199;49.138;7.414;2022-07-03T05:15:19;3.28;;;1.80;;
62202;SDS011;48199;49.138;7.414;2022-07-03T05:17:45;8.35;;;2.85;;
62202;SDS011;48199;49.138;7.414;2022-07-03T05:20:10;7.18;;;2.53;;
62202;SDS011;48199;49.138;7.414;2022-07-03T05:22:55;3.47;;;1.80;;
62202;SDS011;48199;49.138;7.414;2022-07-03T05:25:22;7.00;;;2.05;;
62202;SDS011;48199;49.138;7.414;2022-07-03T05:27:48;12.63;;;1.70;;
62202;SDS011;48199;49.138;7.414;2022-07-03T05:30:15;5.20;;;2.05;;
62202;SDS011;48199;49.138;7.414;2022-07-03T05:32:41;3.67;;;1.98;;
62202;SDS011;48199;49.138;7.414;2022-07-03T05:35:06;3.55;;;1.42;;
62202;SDS011;48199;49.138;7.414;2022-07-03T05:37:32;4.32;;;1.50;;
62202;SDS011;48199;49.138;7.414;2022-07-03T05:39:58;5.70;;;1.40;;
62202;SDS011;48199;49.138;7.414;2022-07-03T05:42:23;7.95;;;2.65;;
62202;SDS011;48199;49.138;7.414;2022-07-03T05:44:48;5.75;;;1.90;;
62202;SDS011;48199;49.138;7.414;2022-07-03T05:47:14;5.20;;;1.75;;
62202;SDS011;48199;49.138;7.414;2022-07-03T05:49:39;5.53;;;2.05;;
62202;SDS011;48199;49.138;7.414;2022-07-03T05:52:05;9.15;;;2.35;;
62202;SDS011;48199;49.138;7.414;2022-07-03T05:54:30;3.53;;;1.73;;
62202;SDS011;48199;49.138;7.414;2022-07-03T05:56:56;8.23;;;1.80;;
62202;SDS011;48199;49.138;7.414;2022-07-03T05:59:21;4.38;;;1.70;;
62202;SDS011;48199;49.138;7.414;2022-07-03T06:01:46;2.53;;;1.50;;
62202;SDS011;48199;49.138;7.414;2022-07-03T06:04:12;2.85;;;1.40;;
62202;SDS011;48199;49.138;7.414;2022-07-03T06:06:37;6.47;;;1.50;;
62202;SDS011;48199;49.138;7.414;2022-07-03T06:09:03;2.60;;;1.50;;
62202;SDS011;48199;49.138;7.414;2022-07-03T06:11:28;5.32;;;1.33;;
62202;SDS011;48199;49.138;7.414;2022-07-03T06:13:54;4.32;;;1.40;;
62202;SDS011;48199;49.138;7.414;2022-07-03T06:16:19;3.42;;;1.45;;
62202;SDS011;48199;49.138;7.414;2022-07-03T06:18:44;5.43;;;1.73;;
62202;SDS011;48199;49.138;7.414;2022-07-03T06:21:10;5.30;;;1.58;;
62202;SDS011;48199;49.138;7.414;2022-07-03T06:23:35;2.15;;;1.52;;
62202;SDS011;48199;49.138;7.414;2022-07-03T06:26:01;6.38;;;1.73;;
62202;SDS011;48199;49.138;7.414;2022-07-03T06:28:26;2.65;;;1.33;;
62202;SDS011;48199;49.138;7.414;2022-07-03T06:30:52;4.47;;;1.33;;
62202;SDS011;48199;49.138;7.414;2022-07-03T06:33:17;3.88;;;1.45;;
62202;SDS011;48199;49.138;7.414;2022-07-03T06:35:43;2.95;;;1.30;;
62202;SDS011;48199;49.138;7.414;2022-07-03T06:38:09;7.03;;;1.40;;
62202;SDS011;48199;49.138;7.414;2022-07-03T06:40:34;3.63;;;1.25;;
62202;SDS011;48199;49.138;7.414;2022-07-03T06:43:00;2.80;;;1.30;;
62202;SDS011;48199;49.138;7.414;2022-07-03T06:45:25;3.65;;;1.10;;
62202;SDS011;48199;49.138;7.414;2022-07-03T06:47:50;4.30;;;1.20;;
62202;SDS011;48199;49.138;7.414;2022-07-03T06:50:16;5.00;;;1.52;;
62202;SDS011;48199;49.138;7.414;2022-07-03T06:52:41;10.43;;;1.25;;
62202;SDS011;48199;49.138;7.414;2022-07-03T06:55:07;8.27;;;1.48;;
62202;SDS011;48199;49.138;7.414;2022-07-03T06:57:32;1.50;;;1.00;;
62202;SDS011;48199;49.138;7.414;2022-07-03T06:59:58;5.03;;;1.10;;
62202;SDS011;48199;49.138;7.414;2022-07-03T07:02:23;2.58;;;1.30;;
62202;SDS011;48199;49.138;7.414;2022-07-03T07:04:48;1.98;;;1.10;;
62202;SDS011;48199;49.138;7.414;2022-07-03T07:07:14;2.78;;;1.10;;
62202;SDS011;48199;49.138;7.414;2022-07-03T07:09:39;3.08;;;1.15;;
62202;SDS011;48199;49.138;7.414;2022-07-03T07:12:05;2.72;;;1.27;;
62202;SDS011;48199;49.138;7.414;2022-07-03T07:14:30;2.13;;;1.10;;
62202;SDS011;48199;49.138;7.414;2022-07-03T07:16:56;1.60;;;1.20;;
62202;SDS011;48199;49.138;7.414;2022-07-03T07:19:21;1.83;;;1.00;;
62202;SDS011;48199;49.138;7.414;2022-07-03T07:21:47;6.40;;;1.13;;
62202;SDS011;48199;49.138;7.414;2022-07-03T07:24:12;9.20;;;1.30;;
62202;SDS011;48199;49.138;7.414;2022-07-03T07:26:38;4.68;;;1.15;;
62202;SDS011;48199;49.138;7.414;2022-07-03T07:29:03;7.38;;;1.33;;
62202;SDS011;48199;49.138;7.414;2022-07-03T07:31:28;2.33;;;1.00;;
62202;SDS011;48199;49.138;7.414;2022-07-03T07:33:54;2.22;;;1.00;;
62202;SDS011;48199;49.138;7.414;2022-07-03T07:36:19;3.85;;;1.17;;
62202;SDS011;48199;49.138;7.414;2022-07-03T07:38:45;5.60;;;1.20;;
62202;SDS011;48199;49.138;7.414;2022-07-03T07:41:10;4.28;;;1.20;;
62202;SDS011;48199;49.138;7.414;2022-07-03T07:43:35;1.98;;;1.10;;
62202;SDS011;48199;49.138;7.414;2022-07-03T07:46:01;3.90;;;1.02;;
62202;SDS011;48199;49.138;7.414;2022-07-03T07:48:26;3.38;;;1.02;;
62202;SDS011;48199;49.138;7.414;2022-07-03T07:50:51;4.15;;;1.17;;
62202;SDS011;48199;49.138;7.414;2022-07-03T07:53:17;3.28;;;1.20;;
62202;SDS011;48199;49.138;7.414;2022-07-03T07:55:43;7.03;;;1.30;;
62202;SDS011;48199;49.138;7.414;2022-07-03T07:58:08;6.53;;;1.02;;
62202;SDS011;48199;49.138;7.414;2022-07-03T08:00:34;5.47;;;1.27;;
62202;SDS011;48199;49.138;7.414;2022-07-03T08:02:59;6.15;;;1.15;;
62202;SDS011;48199;49.138;7.414;2022-07-03T08:05:43;3.42;;;1.10;;
62202;SDS011;48199;49.138;7.414;2022-07-03T08:08:09;4.38;;;0.98;;
62202;SDS011;48199;49.138;7.414;2022-07-03T08:10:45;6.57;;;1.00;;
62202;SDS011;48199;49.138;7.414;2022-07-03T08:13:15;3.90;;;1.20;;
62202;SDS011;48199;49.138;7.414;2022-07-03T08:15:43;2.03;;;0.93;;
62202;SDS011;48199;49.138;7.414;2022-07-03T08:18:09;3.80;;;1.00;;
62202;SDS011;48199;49.138;7.414;2022-07-03T08:20:35;2.25;;;0.90;;
62202;SDS011;48199;49.138;7.414;2022-07-03T08:23:01;4.47;;;1.00;;
62202;SDS011;48199;49.138;7.414;2022-07-03T08:25:27;1.33;;;0.93;;
62202;SDS011;48199;49.138;7.414;2022-07-03T08:27:54;6.32;;;1.20;;
62202;SDS011;48199;49.138;7.414;2022-07-03T08:30:20;10.93;;;1.25;;
62202;SDS011;48199;49.138;7.414;2022-07-03T08:32:49;4.00;;;1.13;;
62202;SDS011;48199;49.138;7.414;2022-07-03T08:35:16;1.25;;;0.98;;
62202;SDS011;48199;49.138;7.414;2022-07-03T08:37:41;9.80;;;1.00;;
62202;SDS011;48199;49.138;7.414;2022-07-03T08:40:09;3.42;;;1.00;;
62202;SDS011;48199;49.138;7.414;2022-07-03T08:42:39;3.13;;;1.00;;
62202;SDS011;48199;49.138;7.414;2022-07-03T08:45:13;7.18;;;1.20;;
62202;SDS011;48199;49.138;7.414;2022-07-03T08:47:40;4.93;;;0.95;;
62202;SDS011;48199;49.138;7.414;2022-07-03T08:50:08;4.35;;;0.98;;
62202;SDS011;48199;49.138;7.414;2022-07-03T08:52:35;3.80;;;1.40;;
62202;SDS011;48199;49.138;7.414;2022-07-03T08:55:02;4.00;;;2.33;;
62202;SDS011;48199;49.138;7.414;2022-07-03T08:57:29;5.00;;;1.08;;
62202;SDS011;48199;49.138;7.414;2022-07-03T08:59:56;7.63;;;1.20;;
62202;SDS011;48199;49.138;7.414;2022-07-03T09:02:23;2.17;;;0.98;;
62202;SDS011;48199;49.138;7.414;2022-07-03T09:04:50;7.30;;;1.05;;
62202;SDS011;48199;49.138;7.414;2022-07-03T09:07:17;5.00;;;0.88;;
62202;SDS011;48199;49.138;7.414;2022-07-03T09:09:43;3.15;;;1.00;;
62202;SDS011;48199;49.138;7.414;2022-07-03T09:12:09;5.60;;;1.00;;
62202;SDS011;48199;49.138;7.414;2022-07-03T09:14:35;3.83;;;1.00;;
62202;SDS011;48199;49.138;7.414;2022-07-03T09:17:01;3.15;;;1.00;;
62202;SDS011;48199;49.138;7.414;2022-07-03T09:19:43;2.28;;;0.98;;
62202;SDS011;48199;49.138;7.414;2022-07-03T09:22:44;3.88;;;0.90;;
62202;SDS011;48199;49.138;7.414;2022-07-03T09:25:06;4.35;;;1.25;;
62202;SDS011;48199;49.138;7.414;2022-07-03T09:27:36;4.93;;;1.20;;
62202;SDS011;48199;49.138;7.414;2022-07-03T09:30:13;3.70;;;0.88;;
62202;SDS011;48199;49.138;7.414;2022-07-03T09:35:09;5.63;;;1.10;;
62202;SDS011;48199;49.138;7.414;2022-07-03T09:37:37;1.52;;;1.00;;
62202;SDS011;48199;49.138;7.414;2022-07-03T09:40:03;3.13;;;0.90;;
62202;SDS011;48199;49.138;7.414;2022-07-03T09:42:29;4.38;;;0.90;;
62202;SDS011;48199;49.138;7.414;2022-07-03T09:44:54;2.90;;;1.00;;
62202;SDS011;48199;49.138;7.414;2022-07-03T09:47:20;5.78;;;0.90;;
62202;SDS011;48199;49.138;7.414;2022-07-03T09:49:54;3.22;;;0.85;;
62202;SDS011;48199;49.138;7.414;2022-07-03T09:52:32;3.80;;;0.98;;
62202;SDS011;48199;49.138;7.414;2022-07-03T09:55:02;4.22;;;1.20;;
62202;SDS011;48199;49.138;7.414;2022-07-03T09:57:46;6.03;;;1.00;;
62202;SDS011;48199;49.138;7.414;2022-07-03T10:00:24;1.77;;;0.85;;
62202;SDS011;48199;49.138;7.414;2022-07-03T10:02:53;8.02;;;1.00;;
62202;SDS011;48199;49.138;7.414;2022-07-03T10:05:21;7.47;;;1.48;;
62202;SDS011;48199;49.138;7.414;2022-07-03T10:07:50;2.22;;;0.70;;
62202;SDS011;48199;49.138;7.414;2022-07-03T10:10:17;3.30;;;0.85;;
62202;SDS011;48199;49.138;7.414;2022-07-03T10:12:45;3.85;;;1.00;;
62202;SDS011;48199;49.138;7.414;2022-07-03T10:15:11;2.75;;;1.00;;
62202;SDS011;48199;49.138;7.414;2022-07-03T10:17:38;3.25;;;1.10;;
62202;SDS011;48199;49.138;7.414;2022-07-03T10:20:05;6.90;;;1.33;;
62202;SDS011;48199;49.138;7.414;2022-07-03T10:22:31;6.32;;;1.00;;
62202;SDS011;48199;49.138;7.414;2022-07-03T10:25:03;2.42;;;1.20;;
62202;SDS011;48199;49.138;7.414;2022-07-03T10:27:30;3.60;;;0.88;;
62202;SDS011;48199;49.138;7.414;2022-07-03T10:29:56;3.90;;;0.80;;
62202;SDS011;48199;49.138;7.414;2022-07-03T10:32:25;3.85;;;0.90;;
62202;SDS011;48199;49.138;7.414;2022-07-03T10:34:52;2.08;;;0.80;;
62202;SDS011;48199;49.138;7.414;2022-07-03T10:37:18;2.55;;;0.90;;
62202;SDS011;48199;49.138;7.414;2022-07-03T10:42:31;5.97;;;0.73;;
62202;SDS011;48199;49.138;7.414;2022-07-03T10:45:18;5.53;;;1.00;;
62202;SDS011;48199;49.138;7.414;2022-07-03T10:47:50;4.25;;;0.95;;
62202;SDS011;48199;49.138;7.414;2022-07-03T10:50:20;1.58;;;0.55;;
62202;SDS011;48199;49.138;7.414;2022-07-03T10:52:46;2.40;;;0.80;;
62202;SDS011;48199;49.138;7.414;2022-07-03T10:55:13;1.55;;;0.70;;
62202;SDS011;48199;49.138;7.414;2022-07-03T10:57:40;2.97;;;0.85;;
62202;SDS011;48199;49.138;7.414;2022-07-03T11:00:14;5.32;;;1.23;;
62202;SDS011;48199;49.138;7.414;2022-07-03T11:02:44;1.55;;;0.80;;
62202;SDS011;48199;49.138;7.414;2022-07-03T11:05:18;3.95;;;0.90;;
62202;SDS011;48199;49.138;7.414;2022-07-03T11:36:09;4.78;;;0.93;;
62202;SDS011;48199;49.138;7.414;2022-07-03T11:38:35;7.75;;;1.20;;
62202;SDS011;48199;49.138;7.414;2022-07-03T11:41:02;3.13;;;0.60;;
62202;SDS011;48199;49.138;7.414;2022-07-03T11:43:34;3.22;;;1.05;;
62202;SDS011;48199;49.138;7.414;2022-07-03T11:46:00;3.22;;;0.82;;
62202;SDS011;48199;49.138;7.414;2022-07-03T11:48:27;4.00;;;0.90;;
62202;SDS011;48199;49.138;7.414;2022-07-03T11:50:58;4.68;;;1.00;;
62202;SDS011;48199;49.138;7.414;2022-07-03T11:53:36;3.42;;;0.88;;
62202;SDS011;48199;49.138;7.414;2022-07-03T11:56:04;2.47;;;0.90;;
62202;SDS011;48199;49.138;7.414;2022-07-03T11:58:40;4.03;;;0.80;;
62202;SDS011;48199;49.138;7.414;2022-07-03T12:01:10;2.75;;;1.08;;
62202;SDS011;48199;49.138;7.414;2022-07-03T12:03:52;2.47;;;1.00;;
62202;SDS011;48199;49.138;7.414;2022-07-03T12:06:19;1.70;;;0.70;;
62202;SDS011;48199;49.138;7.414;2022-07-03T12:08:45;5.72;;;0.95;;
62202;SDS011;48199;49.138;7.414;2022-07-03T12:11:12;2.15;;;0.90;;
62202;SDS011;48199;49.138;7.414;2022-07-03T12:13:39;2.92;;;0.90;;
62202;SDS011;48199;49.138;7.414;2022-07-03T12:16:08;5.57;;;0.90;;
62202;SDS011;48199;49.138;7.414;2022-07-03T12:18:54;1.75;;;0.80;;
62202;SDS011;48199;49.138;7.414;2022-07-03T12:21:20;3.72;;;0.75;;
62202;SDS011;48199;49.138;7.414;2022-07-03T12:26:31;3.47;;;1.00;;
62202;SDS011;48199;49.138;7.414;2022-07-03T12:28:58;1.58;;;0.65;;
62202;SDS011;48199;49.138;7.414;2022-07-03T12:31:29;1.60;;;0.73;;
62202;SDS011;48199;49.138;7.414;2022-07-03T12:33:55;9.07;;;0.82;;
62202;SDS011;48199;49.138;7.414;2022-07-03T12:36:22;2.90;;;0.90;;
62202;SDS011;48199;49.138;7.414;2022-07-03T12:38:56;1.60;;;0.93;;
62202;SDS011;48199;49.138;7.414;2022-07-03T12:41:23;2.17;;;0.65;;
62202;SDS011;48199;49.138;7.414;2022-07-03T12:43:50;1.58;;;0.75;;
62202;SDS011;48199;49.138;7.414;2022-07-03T12:46:23;2.55;;;0.90;;
62202;SDS011;48199;49.138;7.414;2022-07-03T12:48:51;3.25;;;0.80;;
62202;SDS011;48199;49.138;7.414;2022-07-03T12:54:04;5.03;;;1.20;;
62202;SDS011;48199;49.138;7.414;2022-07-03T12:56:30;2.88;;;0.90;;
62202;SDS011;48199;49.138;7.414;2022-07-03T12:58:55;0.70;;;0.70;;
62202;SDS011;48199;49.138;7.414;2022-07-03T13:01:39;2.42;;;0.82;;
62202;SDS011;48199;49.138;7.414;2022-07-03T13:04:05;2.58;;;0.75;;
62202;SDS011;48199;49.138;7.414;2022-07-03T13:06:33;1.67;;;0.73;;
62202;SDS011;48199;49.138;7.414;2022-07-03T13:09:00;1.80;;;0.82;;
62202;SDS011;48199;49.138;7.414;2022-07-03T13:11:30;1.55;;;0.80;;
62202;SDS011;48199;49.138;7.414;2022-07-03T13:14:03;1.75;;;0.98;;
62202;SDS011;48199;49.138;7.414;2022-07-03T13:16:35;9.15;;;0.90;;
62202;SDS011;48199;49.138;7.414;2022-07-03T13:19:03;5.03;;;1.03;;
62202;SDS011;48199;49.138;7.414;2022-07-03T13:21:30;2.55;;;0.70;;
62202;SDS011;48199;49.138;7.414;2022-07-03T13:23:55;2.08;;;0.73;;
62202;SDS011;48199;49.138;7.414;2022-07-03T13:26:21;1.52;;;0.77;;
62202;SDS011;48199;49.138;7.414;2022-07-03T13:28:46;5.25;;;0.90;;
62202;SDS011;48199;49.138;7.414;2022-07-03T13:31:12;3.22;;;0.75;;
62202;SDS011;48199;49.138;7.414;2022-07-03T13:33:37;2.17;;;0.88;;
62202;SDS011;48199;49.138;7.414;2022-07-03T13:36:02;3.30;;;1.02;;
62202;SDS011;48199;49.138;7.414;2022-07-03T13:38:28;3.15;;;0.93;;
62202;SDS011;48199;49.138;7.414;2022-07-03T13:40:53;7.07;;;1.15;;
62202;SDS011;48199;49.138;7.414;2022-07-03T13:43:18;2.17;;;0.80;;
62202;SDS011;48199;49.138;7.414;2022-07-03T13:45:44;2.80;;;1.00;;
62202;SDS011;48199;49.138;7.414;2022-07-03T13:48:09;1.17;;;0.90;;
62202;SDS011;48199;49.138;7.414;2022-07-03T13:50:35;5.07;;;0.85;;
62202;SDS011;48199;49.138;7.414;2022-07-03T13:53:00;6.18;;;0.90;;
62202;SDS011;48199;49.138;7.414;2022-07-03T13:55:26;1.00;;;0.63;;
62202;SDS011;48199;49.138;7.414;2022-07-03T13:57:51;5.28;;;0.98;;
62202;SDS011;48199;49.138;7.414;2022-07-03T14:00:17;5.13;;;0.85;;
62202;SDS011;48199;49.138;7.414;2022-07-03T14:02:43;2.05;;;0.88;;
62202;SDS011;48199;49.138;7.414;2022-07-03T14:05:08;1.67;;;0.90;;
62202;SDS011;48199;49.138;7.414;2022-07-03T14:07:34;3.47;;;0.95;;
62202;SDS011;48199;49.138;7.414;2022-07-03T14:09:59;1.20;;;0.75;;
62202;SDS011;48199;49.138;7.414;2022-07-03T14:12:25;0.93;;;0.70;;
62202;SDS011;48199;49.138;7.414;2022-07-03T14:14:50;2.83;;;0.70;;
62202;SDS011;48199;49.138;7.414;2022-07-03T14:17:15;5.80;;;0.90;;
62202;SDS011;48199;49.138;7.414;2022-07-03T14:19:41;2.03;;;0.80;;
62202;SDS011;48199;49.138;7.414;2022-07-03T14:22:06;1.67;;;0.82;;
62202;SDS011;48199;49.138;7.414;2022-07-03T14:24:31;2.38;;;0.85;;
62202;SDS011;48199;49.138;7.414;2022-07-03T14:26:57;1.27;;;0.60;;
62202;SDS011;48199;49.138;7.414;2022-07-03T14:29:41;2.45;;;0.70;;
62202;SDS011;48199;49.138;7.414;2022-07-03T14:32:24;2.85;;;0.60;;
62202;SDS011;48199;49.138;7.414;2022-07-03T14:34:59;2.78;;;0.80;;
62202;SDS011;48199;49.138;7.414;2022-07-03T14:37:26;4.35;;;1.08;;
62202;SDS011;48199;49.138;7.414;2022-07-03T14:39:52;4.82;;;0.80;;
62202;SDS011;48199;49.138;7.414;2022-07-03T14:42:18;3.17;;;1.10;;
62202;SDS011;48199;49.138;7.414;2022-07-03T14:44:44;4.22;;;0.82;;
62202;SDS011;48199;49.138;7.414;2022-07-03T14:47:09;1.10;;;0.75;;
62202;SDS011;48199;49.138;7.414;2022-07-03T14:49:35;1.05;;;0.70;;
62202;SDS011;48199;49.138;7.414;2022-07-03T14:52:01;2.97;;;0.88;;
62202;SDS011;48199;49.138;7.414;2022-07-03T14:54:28;5.90;;;0.77;;
62202;SDS011;48199;49.138;7.414;2022-07-03T14:56:54;4.28;;;0.90;;
62202;SDS011;48199;49.138;7.414;2022-07-03T14:59:32;3.08;;;0.95;;
62202;SDS011;48199;49.138;7.414;2022-07-03T15:02:04;4.35;;;0.88;;
62202;SDS011;48199;49.138;7.414;2022-07-03T15:07:03;3.78;;;0.88;;
62202;SDS011;48199;49.138;7.414;2022-07-03T15:09:32;10.25;;;0.70;;
62202;SDS011;48199;49.138;7.414;2022-07-03T15:12:02;2.00;;;0.82;;
62202;SDS011;48199;49.138;7.414;2022-07-03T15:14:49;1.75;;;0.60;;
62202;SDS011;48199;49.138;7.414;2022-07-03T15:17:16;2.53;;;0.80;;
62202;SDS011;48199;49.138;7.414;2022-07-03T15:19:44;3.17;;;0.80;;
62202;SDS011;48199;49.138;7.414;2022-07-03T15:22:10;2.70;;;0.60;;
62202;SDS011;48199;49.138;7.414;2022-07-03T15:24:40;2.70;;;1.00;;
62202;SDS011;48199;49.138;7.414;2022-07-03T15:27:06;1.15;;;0.65;;
62202;SDS011;48199;49.138;7.414;2022-07-03T15:29:32;2.90;;;0.70;;
62202;SDS011;48199;49.138;7.414;2022-07-03T15:32:02;5.35;;;0.70;;
62202;SDS011;48199;49.138;7.414;2022-07-03T15:34:29;2.10;;;0.82;;
62202;SDS011;48199;49.138;7.414;2022-07-03T15:36:59;2.40;;;0.80;;
62202;SDS011;48199;49.138;7.414;2022-07-03T15:42:33;3.03;;;0.93;;
62202;SDS011;48199;49.138;7.414;2022-07-03T15:45:20;2.65;;;0.88;;
62202;SDS011;48199;49.138;7.414;2022-07-03T15:48:11;1.95;;;0.80;;
62202;SDS011;48199;49.138;7.414;2022-07-03T15:53:36;3.35;;;0.73;;
62202;SDS011;48199;49.138;7.414;2022-07-03T15:56:03;3.03;;;1.00;;
62202;SDS011;48199;49.138;7.414;2022-07-03T15:58:30;3.47;;;0.98;;
62202;SDS011;48199;49.138;7.414;2022-07-03T16:00:57;5.15;;;0.80;;
62202;SDS011;48199;49.138;7.414;2022-07-03T16:03:47;2.97;;;0.75;;
62202;SDS011;48199;49.138;7.414;2022-07-03T16:06:26;4.53;;;0.82;;